createdAt,value
2023-04-06T00:02:23.972Z,46.20
2023-04-06T00:04:50.826Z,44.07
2023-04-06T00:07:18.677Z,49.73
2023-04-06T00:09:45.896Z,50.23
2023-04-06T00:12:12.777Z,44.97
2023-04-06T00:14:39.648Z,49.43
2023-04-06T00:17:06.581Z,47.23
2023-04-06T00:19:33.476Z,49.30
2023-04-06T00:22:00.521Z,46.73
2023-04-06T00:24:27.437Z,48.40
2023-04-06T00:26:54.271Z,48.67
2023-04-06T00:29:21.148Z,51.07
2023-04-06T00:31:48.032Z,49.13
2023-04-06T00:34:16.949Z,48.37
2023-04-06T00:36:43.857Z,50.07
2023-04-06T00:39:11.403Z,42.33
2023-04-06T00:41:38.288Z,51.70
2023-04-06T00:44:05.136Z,56.73
2023-04-06T00:46:32.000Z,52.57
2023-04-06T00:48:58.972Z,50.70
2023-04-06T00:51:26.502Z,48.47
2023-04-06T00:53:53.336Z,48.77
2023-04-06T00:56:20.232Z,49.73
2023-04-06T00:58:47.074Z,45.97
2023-04-06T01:01:13.946Z,57.83
2023-04-06T01:03:40.869Z,52.53
2023-04-06T01:06:07.837Z,54.83
2023-04-06T01:08:34.704Z,58.53
2023-04-06T01:11:02.002Z,61.77
2023-04-06T01:13:29.048Z,58.73
2023-04-06T01:15:56.122Z,62.07
2023-04-06T01:18:29.817Z,56.73
2023-04-06T01:20:56.883Z,57.60
2023-04-06T01:23:23.717Z,60.60
2023-04-06T01:25:50.683Z,53.70
2023-04-06T01:28:17.605Z,56.47
2023-04-06T01:30:44.489Z,59.10
2023-04-06T01:33:11.490Z,56.93
2023-04-06T01:35:38.439Z,57.53
2023-04-06T01:38:05.308Z,53.67
2023-04-06T01:40:32.179Z,55.87
2023-04-06T01:42:59.056Z,57.27
2023-04-06T01:45:27.136Z,55.40
2023-04-06T01:47:54.017Z,54.40
2023-04-06T01:50:20.926Z,56.50
2023-04-06T01:52:47.826Z,56.67
2023-04-06T01:55:14.710Z,55.30
2023-04-06T01:57:41.628Z,54.87
2023-04-06T02:00:09.003Z,52.17
2023-04-06T02:02:35.948Z,52.20
2023-04-06T02:05:02.962Z,46.67
2023-04-06T02:07:31.053Z,41.60
2023-04-06T02:09:57.932Z,46.50
2023-04-06T02:12:25.059Z,40.10
2023-04-06T02:14:52.241Z,47.67
2023-04-06T02:17:19.196Z,43.77
2023-04-06T02:19:46.428Z,42.23
2023-04-06T02:22:13.301Z,44.03
2023-04-06T02:24:40.225Z,40.93
2023-04-06T02:27:07.423Z,42.33
2023-04-06T02:29:34.241Z,38.23
2023-04-06T02:32:01.279Z,37.67
2023-04-06T02:34:28.228Z,39.43
2023-04-06T02:36:55.323Z,43.63
2023-04-06T02:39:22.275Z,40.30
2023-04-06T02:41:49.097Z,43.53
2023-04-06T02:44:16.183Z,42.00
2023-04-06T02:46:43.112Z,40.37
2023-04-06T02:49:10.127Z,39.47
2023-04-06T02:51:37.134Z,41.87
2023-04-06T02:54:04.082Z,40.93
2023-04-06T02:56:30.978Z,43.60
2023-04-06T02:58:57.866Z,46.73
2023-04-06T03:01:24.804Z,42.47
2023-04-06T03:03:51.990Z,41.30
2023-04-06T03:06:18.980Z,39.73
2023-04-06T03:08:46.275Z,44.80
2023-04-06T03:11:13.106Z,41.60
2023-04-06T03:13:41.341Z,46.00
2023-04-06T03:16:08.364Z,41.43
2023-04-06T03:18:35.454Z,43.37
2023-04-06T03:21:02.422Z,45.47
2023-04-06T03:23:30.458Z,45.60
2023-04-06T03:25:57.313Z,49.73
2023-04-06T03:28:24.159Z,49.07
2023-04-06T03:30:51.238Z,44.43
2023-04-06T03:33:18.109Z,45.50
2023-04-06T03:35:45.224Z,45.23
2023-04-06T03:38:12.186Z,48.97
2023-04-06T03:40:39.063Z,51.17
2023-04-06T03:43:06.221Z,47.73
2023-04-06T03:45:33.099Z,48.63
2023-04-06T03:47:59.937Z,44.33
2023-04-06T03:50:27.093Z,46.90
2023-04-06T03:52:53.991Z,43.13
2023-04-06T03:55:20.941Z,44.37
2023-04-06T03:57:47.807Z,50.07
2023-04-06T04:00:15.018Z,47.33
2023-04-06T04:02:41.976Z,44.27
2023-04-06T04:05:09.343Z,49.73
2023-04-06T04:07:36.264Z,47.87
2023-04-06T04:10:03.175Z,45.13
2023-04-06T04:12:29.989Z,42.97
2023-04-06T04:14:56.870Z,55.93
2023-04-06T04:17:23.739Z,49.87
2023-04-06T04:19:50.665Z,46.17
2023-04-06T04:22:17.541Z,45.37
2023-04-06T04:24:44.401Z,45.60
2023-04-06T04:27:11.417Z,47.10
2023-04-06T04:29:38.314Z,41.20
2023-04-06T04:32:05.495Z,36.67
2023-04-06T04:34:32.664Z,47.00
2023-04-06T04:36:59.603Z,41.43
2023-04-06T04:39:26.544Z,48.80
2023-04-06T04:41:53.542Z,37.30
2023-04-06T04:44:20.965Z,31.27
2023-04-06T04:46:47.805Z,34.40
2023-04-06T04:49:14.680Z,30.47
2023-04-06T04:51:41.546Z,27.43
2023-04-06T04:54:08.449Z,26.70
2023-04-06T04:56:35.416Z,26.27
2023-04-06T04:59:02.355Z,26.30
2023-04-06T05:01:29.235Z,23.13
2023-04-06T05:03:56.359Z,20.53
2023-04-06T05:06:23.243Z,23.77
2023-04-06T05:08:50.419Z,20.13
2023-04-06T05:11:17.270Z,19.30
2023-04-06T05:13:44.206Z,24.87
2023-04-06T05:16:11.123Z,22.83
2023-04-06T05:18:38.001Z,21.23
2023-04-06T05:21:05.031Z,21.33
2023-04-06T05:23:31.858Z,18.00
2023-04-06T05:25:58.794Z,20.57
2023-04-06T05:28:25.751Z,22.37
2023-04-06T05:30:52.738Z,20.57
2023-04-06T05:33:19.609Z,19.60
2023-04-06T05:35:46.531Z,17.50
2023-04-06T05:38:13.483Z,19.37
2023-04-06T05:40:41.972Z,17.03
2023-04-06T05:43:09.207Z,16.17
2023-04-06T05:45:36.157Z,19.33
2023-04-06T05:48:03.724Z,17.23
2023-04-06T05:50:30.750Z,19.73
2023-04-06T05:52:57.616Z,18.17
2023-04-06T05:55:24.597Z,20.00
2023-04-06T05:57:52.724Z,22.83
2023-04-06T06:00:20.703Z,18.13
2023-04-06T06:02:47.767Z,19.37
2023-04-06T06:05:15.874Z,19.83
2023-04-06T06:07:42.850Z,23.70
2023-04-06T06:10:10.405Z,19.80
2023-04-06T06:12:37.431Z,19.33
2023-04-06T06:15:04.919Z,22.13
2023-04-06T06:17:31.796Z,21.90
2023-04-06T06:19:58.800Z,21.40
2023-04-06T06:22:25.656Z,21.07
2023-04-06T06:24:52.579Z,17.87
2023-04-06T06:27:19.400Z,19.33
2023-04-06T06:29:46.303Z,18.43
2023-04-06T06:32:13.292Z,20.07
2023-04-06T06:34:40.403Z,21.20
2023-04-06T06:37:07.342Z,19.30
2023-04-06T06:39:34.262Z,19.37
2023-04-06T06:42:03.912Z,15.33
2023-04-06T06:44:30.781Z,17.10
2023-04-06T06:46:57.755Z,18.47
2023-04-06T06:49:24.815Z,15.17
2023-04-06T06:51:51.728Z,15.97
2023-04-06T06:54:18.715Z,16.40
2023-04-06T06:56:45.999Z,16.20
2023-04-06T06:59:13.173Z,17.07
2023-04-06T07:01:40.253Z,17.13
2023-04-06T07:04:08.971Z,15.77
2023-04-06T07:06:38.885Z,17.23
2023-04-06T07:09:06.124Z,17.33
2023-04-06T07:11:33.084Z,17.77
2023-04-06T07:14:00.207Z,18.73
2023-04-06T07:16:27.175Z,18.17
2023-04-06T07:18:54.035Z,17.83
2023-04-06T07:21:21.354Z,16.67
2023-04-06T07:23:49.168Z,17.50
2023-04-06T07:26:17.752Z,20.03
2023-04-06T07:28:44.690Z,18.27
2023-04-06T07:31:11.577Z,20.87
2023-04-06T07:33:38.524Z,19.87
2023-04-06T07:36:05.974Z,15.83
2023-04-06T07:38:32.890Z,17.87
2023-04-06T07:40:59.743Z,22.03
2023-04-06T07:43:26.728Z,15.67
2023-04-06T07:45:54.750Z,17.50
2023-04-06T07:48:21.657Z,18.20
2023-04-06T07:50:48.592Z,18.87
2023-04-06T07:53:16.786Z,19.13
2023-04-06T07:55:43.646Z,19.57
2023-04-06T07:58:10.601Z,19.17
2023-04-06T08:00:37.486Z,21.03
2023-04-06T08:03:04.495Z,23.17
2023-04-06T08:05:31.541Z,21.57
2023-04-06T08:07:58.412Z,17.63
2023-04-06T08:10:25.335Z,19.63
2023-04-06T08:12:53.154Z,24.00
2023-04-06T08:15:21.337Z,23.87
2023-04-06T08:17:50.140Z,21.53
2023-04-06T08:20:19.607Z,23.37
2023-04-06T08:22:46.993Z,19.50
2023-04-06T08:25:14.104Z,27.37
2023-04-06T08:27:41.562Z,23.53
2023-04-06T08:30:08.764Z,25.17
2023-04-06T08:32:35.789Z,24.67
2023-04-06T08:35:02.755Z,21.00
2023-04-06T08:37:29.644Z,26.67
2023-04-06T08:39:56.591Z,23.03
2023-04-06T08:42:23.661Z,25.73
2023-04-06T08:44:52.479Z,28.70
2023-04-06T08:47:24.518Z,28.73
2023-04-06T08:49:53.803Z,28.67
2023-04-06T08:52:20.853Z,33.17
2023-04-06T08:54:48.947Z,25.87
2023-04-06T08:57:16.035Z,28.17
2023-04-06T08:59:43.043Z,30.53
2023-04-06T09:02:10.173Z,31.53
2023-04-06T09:04:37.328Z,33.93
2023-04-06T09:07:04.426Z,36.67
2023-04-06T09:09:31.404Z,38.83
2023-04-06T09:12:04.521Z,36.53
2023-04-06T09:14:36.458Z,35.23
2023-04-06T09:17:03.385Z,37.30
2023-04-06T09:19:30.321Z,32.57
2023-04-06T09:22:05.024Z,33.33
2023-04-06T09:24:48.708Z,33.17
2023-04-06T09:27:16.424Z,35.13
2023-04-06T09:29:43.820Z,39.90
2023-04-06T09:32:17.969Z,35.03
2023-04-06T09:34:50.899Z,34.43
2023-04-06T09:37:19.199Z,32.23
2023-04-06T09:39:46.700Z,30.63
2023-04-06T09:42:27.442Z,33.90
2023-04-06T09:44:54.368Z,33.67
2023-04-06T09:47:26.402Z,32.87
2023-04-06T09:50:03.939Z,36.40
2023-04-06T09:52:35.153Z,35.57
2023-04-06T09:55:04.536Z,31.80
2023-04-06T09:57:57.940Z,33.33
2023-04-06T10:00:24.967Z,32.17
2023-04-06T10:03:00.997Z,33.60
2023-04-06T10:05:37.073Z,33.83
2023-04-06T10:08:14.877Z,32.60
2023-04-06T10:10:41.737Z,30.73
2023-04-06T10:13:08.815Z,30.53
2023-04-06T10:15:35.782Z,33.13
2023-04-06T10:18:02.725Z,30.77
2023-04-06T10:20:31.192Z,35.60
2023-04-06T10:23:03.427Z,29.63
2023-04-06T10:25:34.911Z,34.00
2023-04-06T10:28:09.364Z,30.57
2023-04-06T10:30:38.888Z,28.67
2023-04-06T10:33:26.256Z,27.47
2023-04-06T10:35:53.283Z,28.43
2023-04-06T10:38:22.986Z,30.60
2023-04-06T10:40:50.303Z,31.23
2023-04-06T10:43:22.362Z,28.13
2023-04-06T10:46:01.050Z,28.80
2023-04-06T10:48:37.941Z,26.60
2023-04-06T10:51:32.578Z,30.13
2023-04-06T10:53:59.476Z,28.00
2023-04-06T10:56:29.070Z,30.67
2023-04-06T10:58:59.088Z,29.17
2023-04-06T11:01:30.504Z,30.37
2023-04-06T11:04:00.517Z,28.87
2023-04-06T11:06:29.905Z,27.23
2023-04-06T11:08:58.816Z,28.13
2023-04-06T11:11:27.899Z,27.80
2023-04-06T11:13:59.937Z,28.40
2023-04-06T11:16:28.674Z,30.03
2023-04-06T11:18:59.710Z,29.77
2023-04-06T11:21:44.660Z,26.90
2023-04-06T11:24:18.920Z,28.33
2023-04-06T11:26:49.505Z,25.83
2023-04-06T11:29:17.544Z,25.83
2023-04-06T11:31:47.653Z,27.80
2023-04-06T11:34:24.423Z,25.73
2023-04-06T11:37:00.247Z,27.57
2023-04-06T11:39:28.441Z,23.20
2023-04-06T11:42:06.849Z,26.23
2023-04-06T11:44:36.906Z,25.63
2023-04-06T11:47:04.593Z,28.70
2023-04-06T11:49:31.969Z,26.63
2023-04-06T11:51:59.288Z,25.07
2023-04-06T11:54:35.570Z,22.87
2023-04-06T11:57:06.146Z,24.87
2023-04-06T11:59:33.554Z,21.43
2023-04-06T12:02:00.815Z,23.17
2023-04-06T12:04:27.778Z,23.10
2023-04-06T12:06:55.493Z,23.70
2023-04-06T12:09:22.423Z,21.03
2023-04-06T12:11:49.459Z,23.00
2023-04-06T12:14:17.170Z,23.57
2023-04-06T12:16:44.872Z,24.93
2023-04-06T12:19:11.850Z,22.50
2023-04-06T12:21:38.723Z,25.77
2023-04-06T12:24:07.718Z,26.27
2023-04-06T12:26:34.676Z,25.70
2023-04-06T12:29:07.758Z,23.03
2023-04-06T12:31:36.519Z,22.90
2023-04-06T12:34:12.957Z,21.80
2023-04-06T12:36:44.392Z,23.15
2023-04-06T12:39:12.082Z,25.83
2023-04-06T12:41:41.640Z,29.10
2023-04-06T12:44:08.596Z,25.90
2023-04-06T12:46:36.260Z,24.90
2023-04-06T12:49:04.540Z,25.77
2023-04-06T12:51:34.986Z,26.70
2023-04-06T12:54:02.042Z,36.67
2023-04-06T12:56:28.929Z,23.37
2023-04-06T12:58:56.361Z,23.70
2023-04-06T13:01:23.383Z,24.90
2023-04-06T13:03:50.727Z,24.83
2023-04-06T13:06:17.609Z,23.83
2023-04-06T13:08:51.191Z,23.20
2023-04-06T13:15:33.175Z,28.35
2023-04-06T13:18:00.174Z,25.35
2023-04-06T13:22:02.532Z,20.02
2023-04-06T13:31:08.689Z,21.98
2023-04-06T13:33:41.595Z,26.57
2023-04-06T13:36:18.300Z,22.07
2023-04-06T13:38:53.989Z,25.70
2023-04-06T13:41:22.316Z,26.07
2023-04-06T13:48:24.191Z,28.52
2023-04-06T13:54:53.781Z,24.25
2023-04-06T13:57:22.367Z,22.60
2023-04-06T14:03:37.544Z,15.76
2023-04-06T14:11:17.657Z,7.45
2023-04-06T14:17:52.624Z,4.15
2023-04-06T14:20:20.942Z,7.28
2023-04-06T14:22:52.443Z,10.73
2023-04-06T14:28:29.331Z,6.90
2023-04-06T14:46:45.590Z,8.87
2023-04-06T14:49:21.764Z,7.47
2023-04-06T14:58:20.679Z,21.15
2023-04-06T15:01:34.768Z,24.87
2023-04-06T15:07:53.315Z,14.55
2023-04-06T15:34:31.939Z,21.30
2023-04-06T15:56:46.980Z,20.33
2023-04-06T16:22:28.751Z,21.92
2023-04-06T16:25:43.631Z,13.90
2023-04-06T16:28:12.245Z,27.15
2023-04-06T16:32:57.482Z,25.45
2023-04-06T16:35:46.499Z,29.42
2023-04-06T16:41:19.201Z,26.81
2023-04-06T16:46:20.062Z,11.83
2023-04-06T16:48:55.159Z,17.73
2023-04-06T16:52:37.242Z,27.98
2023-04-06T16:55:04.608Z,15.30
2023-04-06T17:02:21.689Z,15.35
2023-04-06T17:05:08.179Z,20.90
2023-04-06T17:07:54.569Z,24.48
2023-04-06T17:10:28.926Z,24.10
2023-04-06T17:21:52.017Z,13.90
2023-04-06T17:28:27.501Z,9.45
2023-04-06T17:31:46.694Z,7.95
2023-04-06T17:34:13.571Z,10.68
2023-04-06T17:37:02.420Z,15.00
2023-04-06T17:42:14.958Z,16.03
2023-04-06T17:44:41.788Z,17.27
2023-04-06T17:47:08.614Z,10.77
2023-04-06T17:49:35.495Z,11.97
2023-04-06T17:52:02.322Z,11.07
2023-04-06T17:54:29.135Z,14.17
2023-04-06T17:56:56.179Z,17.97
2023-04-06T17:59:23.492Z,13.03
2023-04-06T18:01:50.375Z,11.70
2023-04-06T18:04:18.401Z,12.77
2023-04-06T18:06:45.447Z,11.27
2023-04-06T18:09:15.229Z,12.63
2023-04-06T18:11:42.391Z,16.57
2023-04-06T18:14:09.457Z,14.53
2023-04-06T18:16:37.442Z,9.97
2023-04-06T18:19:04.874Z,8.57
2023-04-06T18:21:34.863Z,9.10
2023-04-06T18:24:04.107Z,7.83
2023-04-06T18:26:34.043Z,9.43
2023-04-06T18:29:01.260Z,10.47
2023-04-06T18:31:28.226Z,12.93
2023-04-06T18:33:55.962Z,16.60
2023-04-06T18:36:23.192Z,13.43
2023-04-06T18:38:50.101Z,8.47
2023-04-06T18:41:18.109Z,16.27
2023-04-06T18:43:45.049Z,19.00
2023-04-06T18:46:15.746Z,13.87
2023-04-06T18:48:42.830Z,16.70
2023-04-06T18:51:09.640Z,20.63
2023-04-06T18:53:38.539Z,27.73
2023-04-06T18:56:14.487Z,24.43
2023-04-06T18:58:42.485Z,25.43
2023-04-06T19:01:09.353Z,18.80
2023-04-06T19:03:37.148Z,28.77
2023-04-06T19:06:09.973Z,31.40
2023-04-06T19:08:38.802Z,29.10
2023-04-06T19:11:08.762Z,30.37
2023-04-06T19:13:35.806Z,30.80
2023-04-06T19:16:02.973Z,27.73
2023-04-06T19:18:29.803Z,26.93
2023-04-06T19:20:56.905Z,31.33
2023-04-06T19:23:23.996Z,33.70
2023-04-06T19:25:52.716Z,33.53
2023-04-06T19:28:20.604Z,35.03
2023-04-06T19:30:47.587Z,27.17
2023-04-06T19:33:16.348Z,25.87
2023-04-06T19:35:43.202Z,35.43
2023-04-06T19:38:10.110Z,26.40
2023-04-06T19:40:36.958Z,23.50
2023-04-06T19:43:03.824Z,32.33
2023-04-06T19:45:30.952Z,26.07
2023-04-06T19:47:57.858Z,29.17
2023-04-06T19:50:24.793Z,22.67
2023-04-06T19:52:53.327Z,21.70
2023-04-06T19:55:20.248Z,18.40
2023-04-06T19:57:48.036Z,19.30
2023-04-06T20:00:16.357Z,22.33
2023-04-06T20:02:43.635Z,21.97
2023-04-06T20:05:10.714Z,16.47
2023-04-06T20:07:39.004Z,22.57
2023-04-06T20:10:08.200Z,15.07
2023-04-06T20:12:36.164Z,12.70
2023-04-06T20:15:03.095Z,13.70
2023-04-06T20:17:29.957Z,15.33
2023-04-06T20:19:56.824Z,13.10
2023-04-06T20:22:23.867Z,13.63
2023-04-06T20:24:50.859Z,11.47
2023-04-06T20:27:18.924Z,10.10
2023-04-06T20:29:46.046Z,7.73
2023-04-06T20:32:14.502Z,7.83
2023-04-06T20:34:41.481Z,12.03
2023-04-06T20:37:08.939Z,13.07
2023-04-06T20:39:36.871Z,15.43
2023-04-06T20:42:03.824Z,16.07
2023-04-06T20:44:31.265Z,15.27
2023-04-06T20:46:58.908Z,17.23
2023-04-06T20:49:25.810Z,15.87
2023-04-06T20:51:52.620Z,16.37
2023-04-06T20:54:19.757Z,22.33
2023-04-06T20:56:46.836Z,15.47
2023-04-06T20:59:13.693Z,13.73
2023-04-06T21:01:40.934Z,9.93
2023-04-06T21:04:07.964Z,15.83
2023-04-06T21:06:34.900Z,12.13
2023-04-06T21:09:01.771Z,7.53
2023-04-06T21:11:28.801Z,17.20
2023-04-06T21:13:55.803Z,17.30
2023-04-06T21:16:22.811Z,15.33
2023-04-06T21:18:50.476Z,12.70
2023-04-06T21:21:17.279Z,9.63
2023-04-06T21:23:44.052Z,16.23
2023-04-06T21:26:13.769Z,14.40
2023-04-06T21:28:40.602Z,14.93
2023-04-06T21:31:08.830Z,17.53
2023-04-06T21:33:35.912Z,20.40
2023-04-06T21:36:09.110Z,19.30
2023-04-06T21:38:35.936Z,24.73
2023-04-06T21:41:03.822Z,18.33
2023-04-06T21:43:30.699Z,28.27
2023-04-06T21:45:57.496Z,23.03
2023-04-06T21:48:24.402Z,23.63
2023-04-06T21:50:51.243Z,20.00
2023-04-06T21:53:18.326Z,20.83
2023-04-06T21:55:45.712Z,16.53
2023-04-06T21:58:12.941Z,15.97
2023-04-06T22:00:39.814Z,17.03
2023-04-06T22:03:06.897Z,21.17
2023-04-06T22:05:33.967Z,20.40
2023-04-06T22:08:03.810Z,10.07
2023-04-06T22:10:30.851Z,14.27
2023-04-06T22:12:57.638Z,9.47
2023-04-06T22:15:24.636Z,10.77
2023-04-06T22:17:51.707Z,11.13
2023-04-06T22:20:18.663Z,10.00
2023-04-06T22:22:45.731Z,10.23
2023-04-06T22:25:12.528Z,12.40
2023-04-06T22:27:39.322Z,18.60
2023-04-06T22:30:06.890Z,15.53
2023-04-06T22:32:33.739Z,16.60
2023-04-06T22:35:00.580Z,9.30
2023-04-06T22:37:27.478Z,13.87
2023-04-06T22:39:55.073Z,14.97
2023-04-06T22:42:21.864Z,19.63
2023-04-06T22:44:49.735Z,19.73
2023-04-06T22:47:16.890Z,14.70
2023-04-06T22:49:43.763Z,9.23
2023-04-06T22:52:10.628Z,15.83
2023-04-06T22:54:37.516Z,20.23
2023-04-06T22:57:04.368Z,14.90
2023-04-06T22:59:31.523Z,14.90
2023-04-06T23:01:58.492Z,16.30
2023-04-06T23:04:25.662Z,14.87
2023-04-06T23:06:52.701Z,14.13
2023-04-06T23:09:19.520Z,18.13
2023-04-06T23:11:46.293Z,13.53
2023-04-06T23:14:13.198Z,18.17
2023-04-06T23:16:40.100Z,16.87
2023-04-06T23:19:07.105Z,22.23
2023-04-06T23:21:34.169Z,21.47
2023-04-06T23:24:01.288Z,18.27
2023-04-06T23:26:28.175Z,25.40
2023-04-06T23:28:55.273Z,18.97
2023-04-06T23:31:22.083Z,18.27
2023-04-06T23:33:48.919Z,13.87
2023-04-06T23:36:15.727Z,15.30
2023-04-06T23:38:42.546Z,20.10
2023-04-06T23:41:09.360Z,19.10
2023-04-06T23:43:36.369Z,23.50
2023-04-06T23:46:04.404Z,21.60
2023-04-06T23:48:31.276Z,16.67
2023-04-06T23:50:58.078Z,16.57
2023-04-06T23:53:24.864Z,13.20
2023-04-06T23:55:51.732Z,20.27
2023-04-06T23:58:19.033Z,21.23
